Time,TemperatureF,DewpointF,PressureIn,WindDirection,WindDirectionDegrees,WindSpeedMPH,WindSpeedGustMPH,Humidity,HourlyPrecipIn,Conditions,Clouds,dailyrainin,SoftwareType,DateUTC
2013-04-21 00:01:00,49.8,28.0,30.34,ENE,66,2.0,4.0,44,0.00,,,0.02,weatherlink.com 1.10,2013-04-21 04:01:00,
2013-04-21 00:16:00,49.3,29.0,30.35,NE,34,0.0,2.0,45,0.00,,,0.02,weatherlink.com 1.10,2013-04-21 04:16:00,
2013-04-21 00:31:00,49.0,28.0,30.36,West,281,0.0,8.0,45,0.00,,,0.02,weatherlink.com 1.10,2013-04-21 04:31:00,
2013-04-21 00:45:00,48.7,29.0,30.36,ENE,59,4.0,4.0,46,0.00,,,0.00,weatherlink.com 1.10,2013-04-21 04:45:00,
2013-04-21 01:01:00,48.3,29.0,30.36,SSW,200,0.0,4.0,47,0.00,,,0.00,weatherlink.com 1.10,2013-04-21 05:01:00,
2013-04-21 01:16:00,48.0,28.0,30.37,NNW,343,0.0,5.0,47,0.00,,,0.00,weatherlink.com 1.10,2013-04-21 05:16:00,
2013-04-21 01:31:00,47.6,29.0,30.37,North,8,0.0,4.0,48,0.00,,,0.00,weatherlink.com 1.10,2013-04-21 05:31:00,
2013-04-21 01:46:00,46.8,28.0,30.38,ESE,107,0.0,0.0,48,0.00,,,0.00,weatherlink.com 1.10,2013-04-21 05:46:00,
2013-04-21 02:01:00,46.3,28.0,30.38,SE,146,0.0,1.0,49,0.00,,,0.00,weatherlink.com 1.10,2013-04-21 06:01:00,
2013-04-21 02:16:00,46.1,28.0,30.39,SSE,153,0.0,1.0,49,0.00,,,0.00,weatherlink.com 1.10,2013-04-21 06:16:00,
2013-04-21 02:31:00,45.9,29.0,30.39,SSE,158,2.0,2.0,51,0.00,,,0.00,weatherlink.com 1.10,2013-04-21 06:31:00,
2013-04-21 02:46:00,45.7,28.0,30.39,ESE,113,0.0,1.0,50,0.00,,,0.00,weatherlink.com 1.10,2013-04-21 06:46:00,
2013-04-21 03:01:00,45.6,28.0,30.40,NNE,26,0.0,2.0,50,0.00,,,0.00,weatherlink.com 1.10,2013-04-21 07:01:00,
2013-04-21 03:16:00,45.4,28.0,30.41,North,351,0.0,1.0,50,0.00,,,0.00,weatherlink.com 1.10,2013-04-21 07:16:00,
2013-04-21 03:31:00,44.8,28.0,30.42,NNW,338,0.0,1.0,52,0.00,,,0.00,weatherlink.com 1.10,2013-04-21 07:31:00,
2013-04-21 03:46:00,44.9,28.0,30.42,WSW,238,0.0,2.0,51,0.00,,,0.00,weatherlink.com 1.10,2013-04-21 07:46:00,
2013-04-21 04:01:00,44.5,27.0,30.43,NE,49,0.0,5.0,51,0.00,,,0.00,weatherlink.com 1.10,2013-04-21 08:01:00,
2013-04-21 04:16:00,44.3,27.0,30.43,NE,41,0.0,4.0,52,0.00,,,0.00,weatherlink.com 1.10,2013-04-21 08:16:00,
2013-04-21 04:31:00,44.1,28.0,30.44,NE,44,1.0,7.0,53,0.00,,,0.00,weatherlink.com 1.10,2013-04-21 08:31:00,
2013-04-21 04:46:00,44.2,27.0,30.45,SSW,192,0.0,4.0,51,0.00,,,0.00,weatherlink.com 1.10,2013-04-21 08:46:00,
2013-04-21 05:01:00,43.8,28.0,30.45,ENE,65,3.0,6.0,54,0.00,,,0.00,weatherlink.com 1.10,2013-04-21 09:01:00,
2013-04-21 05:16:00,43.5,27.0,30.46,NNE,30,0.0,2.0,53,0.00,,,0.00,weatherlink.com 1.10,2013-04-21 09:16:00,
2013-04-21 05:31:00,42.8,28.0,30.47,NNE,32,1.0,4.0,56,0.00,,,0.00,weatherlink.com 1.10,2013-04-21 09:31:00,
2013-04-21 05:46:00,42.6,26.0,30.49,ENE,65,2.0,5.0,53,0.00,,,0.00,weatherlink.com 1.10,2013-04-21 09:46:00,
2013-04-21 06:01:00,42.4,27.0,30.50,ENE,65,0.0,6.0,54,0.00,,,0.00,weatherlink.com 1.10,2013-04-21 10:01:00,
2013-04-21 06:17:00,41.9,26.0,30.51,NE,52,3.0,4.0,53,0.00,,,0.00,weatherlink.com 1.10,2013-04-21 10:17:00,
2013-04-21 06:32:00,42.0,26.0,30.52,NE,53,0.0,5.0,53,0.00,,,0.00,weatherlink.com 1.10,2013-04-21 10:32:00,
2013-04-21 06:47:00,41.7,26.0,30.53,NE,52,0.0,4.0,55,0.00,,,0.00,weatherlink.com 1.10,2013-04-21 10:47:00,
2013-04-21 07:02:00,42.0,27.0,30.54,NE,46,0.0,6.0,55,0.00,,,0.00,weatherlink.com 1.10,2013-04-21 11:02:00,
2013-04-21 07:17:00,42.4,26.0,30.55,SE,146,4.0,5.0,52,0.00,,,0.00,weatherlink.com 1.10,2013-04-21 11:17:00,
2013-04-21 07:32:00,42.5,25.0,30.56,ENE,59,1.0,10.0,51,0.00,,,0.00,weatherlink.com 1.10,2013-04-21 11:32:00,
2013-04-21 07:47:00,43.2,24.0,30.56,NE,50,6.0,6.0,47,0.00,,,0.00,weatherlink.com 1.10,2013-04-21 11:47:00,
2013-04-21 08:02:00,43.6,25.0,30.57,NNE,24,2.0,7.0,48,0.00,,,0.00,weatherlink.com 1.10,2013-04-21 12:02:00,
2013-04-21 08:17:00,44.0,24.0,30.57,NE,47,4.0,7.0,45,0.00,,,0.00,weatherlink.com 1.10,2013-04-21 12:17:00,
2013-04-21 08:32:00,44.8,25.0,30.57,ENE,57,2.0,8.0,47,0.00,,,0.00,weatherlink.com 1.10,2013-04-21 12:32:00,
2013-04-21 08:47:00,45.8,25.0,30.58,ENE,67,2.0,7.0,45,0.00,,,0.00,weatherlink.com 1.10,2013-04-21 12:47:00,
2013-04-21 09:02:00,46.2,25.0,30.58,NE,56,2.0,6.0,44,0.00,,,0.00,weatherlink.com 1.10,2013-04-21 13:02:00,
2013-04-21 09:17:00,47.1,25.0,30.58,NE,55,0.0,7.0,42,0.00,,,0.00,weatherlink.com 1.10,2013-04-21 13:17:00,
2013-04-21 09:32:00,47.5,25.0,30.59,ENE,59,1.0,6.0,42,0.00,,,0.00,weatherlink.com 1.10,2013-04-21 13:32:00,
2013-04-21 09:47:00,48.1,26.0,30.59,NE,51,1.0,6.0,42,0.00,,,0.00,weatherlink.com 1.10,2013-04-21 13:47:00,
2013-04-21 10:02:00,48.5,26.0,30.59,ENE,57,1.0,6.0,42,0.00,,,0.00,weatherlink.com 1.10,2013-04-21 14:02:00,
2013-04-21 10:17:00,48.8,26.0,30.59,NE,49,2.0,5.0,41,0.00,,,0.00,weatherlink.com 1.10,2013-04-21 14:17:00,
2013-04-21 10:32:00,50.0,26.0,30.59,ENE,64,5.0,7.0,40,0.00,,,0.00,weatherlink.com 1.10,2013-04-21 14:32:00,
2013-04-21 10:47:00,49.7,27.0,30.60,SE,146,4.0,6.0,41,0.00,,,0.00,weatherlink.com 1.10,2013-04-21 14:47:00,
2013-04-21 11:02:00,49.6,23.0,30.60,West,269,2.0,7.0,36,0.00,,,0.00,weatherlink.com 1.10,2013-04-21 15:02:00,
2013-04-21 11:17:00,50.1,27.0,30.60,NE,49,3.0,6.0,41,0.00,,,0.00,weatherlink.com 1.10,2013-04-21 15:17:00,
2013-04-21 11:32:00,50.6,27.0,30.59,NNE,30,1.0,5.0,40,0.00,,,0.00,weatherlink.com 1.10,2013-04-21 15:32:00,
2013-04-21 11:47:00,49.6,23.0,30.59,West,267,5.0,5.0,35,0.00,,,0.00,weatherlink.com 1.10,2013-04-21 15:47:00,
2013-04-21 12:02:00,50.6,26.0,30.59,NE,55,1.0,8.0,39,0.00,,,0.00,weatherlink.com 1.10,2013-04-21 16:02:00,
2013-04-21 12:17:00,51.9,28.0,30.59,SE,128,1.0,7.0,40,0.00,,,0.00,weatherlink.com 1.10,2013-04-21 16:17:00,
2013-04-21 12:32:00,51.8,26.0,30.58,ENE,75,2.0,7.0,37,0.00,,,0.00,weatherlink.com 1.10,2013-04-21 16:32:00,
2013-04-21 12:47:00,51.5,23.0,30.57,NW,321,1.0,4.0,33,0.00,,,0.00,weatherlink.com 1.10,2013-04-21 16:47:00,
2013-04-21 13:02:00,51.9,26.0,30.57,North,351,2.0,6.0,36,0.00,,,0.00,weatherlink.com 1.10,2013-04-21 17:02:00,
2013-04-21 13:17:00,52.5,29.0,30.56,ENE,61,0.0,8.0,40,0.00,,,0.00,weatherlink.com 1.10,2013-04-21 17:17:00,
2013-04-21 13:32:00,53.1,25.0,30.56,ENE,74,0.0,7.0,34,0.00,,,0.00,weatherlink.com 1.10,2013-04-21 17:32:00,
2013-04-21 13:47:00,53.5,27.0,30.56,SE,143,3.0,6.0,36,0.00,,,0.00,weatherlink.com 1.10,2013-04-21 17:47:00,
2013-04-21 14:02:00,54.5,29.0,30.55,NE,44,5.0,10.0,38,0.00,,,0.00,weatherlink.com 1.10,2013-04-21 18:02:00,
2013-04-21 14:17:00,54.9,28.0,30.55,ESE,123,2.0,8.0,36,0.00,,,0.00,weatherlink.com 1.10,2013-04-21 18:17:00,
2013-04-21 14:32:00,54.4,26.0,30.55,SE,136,4.0,6.0,34,0.00,,,0.00,weatherlink.com 1.10,2013-04-21 18:32:00,
2013-04-21 14:47:00,55.7,28.0,30.55,SSE,157,0.0,5.0,34,0.00,,,0.00,weatherlink.com 1.10,2013-04-21 18:47:00,
2013-04-21 15:02:00,56.2,29.0,30.54,ESE,115,4.0,7.0,35,0.00,,,0.00,weatherlink.com 1.10,2013-04-21 19:02:00,
2013-04-21 15:17:00,54.8,27.0,30.53,NE,49,1.0,5.0,34,0.00,,,0.00,weatherlink.com 1.10,2013-04-21 19:17:00,
2013-04-21 15:32:00,55.0,27.0,30.53,East,83,1.0,4.0,34,0.00,,,0.00,weatherlink.com 1.10,2013-04-21 19:32:00,
2013-04-21 15:47:00,55.6,27.0,30.53,SE,135,1.0,7.0,33,0.00,,,0.00,weatherlink.com 1.10,2013-04-21 19:47:00,
2013-04-21 16:02:00,55.0,25.0,30.52,WSW,241,2.0,7.0,31,0.00,,,0.00,weatherlink.com 1.10,2013-04-21 20:02:00,
2013-04-21 16:17:00,55.3,26.0,30.52,NE,47,1.0,8.0,32,0.00,,,0.00,weatherlink.com 1.10,2013-04-21 20:17:00,
2013-04-21 16:32:00,56.3,28.0,30.52,SE,125,0.0,6.0,34,0.00,,,0.00,weatherlink.com 1.10,2013-04-21 20:32:00,
2013-04-21 16:48:00,56.8,26.0,30.52,WSW,247,0.0,4.0,31,0.00,,,0.00,weatherlink.com 1.10,2013-04-21 20:48:00,
2013-04-21 17:03:00,56.1,30.0,30.52,SE,131,0.0,4.0,37,0.00,,,0.00,weatherlink.com 1.10,2013-04-21 21:03:00,
2013-04-21 17:18:00,56.5,28.0,30.52,ESE,117,0.0,4.0,33,0.00,,,0.00,weatherlink.com 1.10,2013-04-21 21:18:00,
2013-04-21 17:33:00,55.0,30.0,30.52,East,82,3.0,5.0,38,0.00,,,0.00,weatherlink.com 1.10,2013-04-21 21:33:00,
2013-04-21 17:48:00,55.7,31.0,30.52,SE,133,0.0,5.0,39,0.00,,,0.00,weatherlink.com 1.10,2013-04-21 21:48:00,
2013-04-21 18:03:00,55.6,31.0,30.53,SE,126,0.0,5.0,40,0.00,,,0.00,weatherlink.com 1.10,2013-04-21 22:03:00,
2013-04-21 18:18:00,55.6,31.0,30.53,SE,138,0.0,9.0,40,0.00,,,0.00,weatherlink.com 1.10,2013-04-21 22:18:00,
2013-04-21 18:33:00,54.4,30.0,30.53,East,90,2.0,11.0,40,0.00,,,0.00,weatherlink.com 1.10,2013-04-21 22:33:00,
2013-04-21 18:48:00,53.9,30.0,30.53,ESE,109,2.0,8.0,40,0.00,,,0.00,weatherlink.com 1.10,2013-04-21 22:48:00,
2013-04-21 19:03:00,53.1,30.0,30.53,East,99,1.0,8.0,42,0.00,,,0.00,weatherlink.com 1.10,2013-04-21 23:03:00,
2013-04-21 19:18:00,52.3,28.0,30.54,SE,128,1.0,7.0,40,0.00,,,0.00,weatherlink.com 1.10,2013-04-21 23:18:00,
2013-04-21 19:33:00,51.5,29.0,30.54,East,101,0.0,6.0,43,0.00,,,0.00,weatherlink.com 1.10,2013-04-21 23:33:00,
2013-04-21 19:48:00,51.0,28.0,30.55,ENE,70,0.0,5.0,42,0.00,,,0.00,weatherlink.com 1.10,2013-04-21 23:48:00,
2013-04-21 20:03:00,50.5,28.0,30.55,ESE,107,0.0,6.0,42,0.00,,,0.00,weatherlink.com 1.10,2013-04-22 00:03:00,
2013-04-21 20:18:00,50.1,28.0,30.55,East,90,0.0,7.0,43,0.00,,,0.00,weatherlink.com 1.10,2013-04-22 00:18:00,
2013-04-21 20:33:00,49.6,28.0,30.55,ESE,104,0.0,2.0,44,0.00,,,0.00,weatherlink.com 1.10,2013-04-22 00:33:00,
2013-04-21 20:48:00,49.2,28.0,30.56,East,100,0.0,2.0,44,0.00,,,0.00,weatherlink.com 1.10,2013-04-22 00:48:00,
2013-04-21 21:03:00,48.2,28.0,30.55,East,100,0.0,1.0,46,0.00,,,0.00,weatherlink.com 1.10,2013-04-22 01:03:00,
2013-04-21 21:18:00,48.3,28.0,30.56,ENE,78,0.0,4.0,45,0.00,,,0.00,weatherlink.com 1.10,2013-04-22 01:18:00,
2013-04-21 21:33:00,48.3,29.0,30.57,ESE,113,0.0,2.0,48,0.00,,,0.00,weatherlink.com 1.10,2013-04-22 01:33:00,
2013-04-21 21:48:00,47.8,28.0,30.57,ENE,78,0.0,1.0,47,0.00,,,0.00,weatherlink.com 1.10,2013-04-22 01:48:00,
2013-04-21 22:03:00,47.4,29.0,30.57,East,79,0.0,1.0,50,0.00,,,0.00,weatherlink.com 1.10,2013-04-22 02:03:00,
2013-04-21 22:18:00,46.9,30.0,30.57,ESE,123,0.0,2.0,53,0.00,,,0.00,weatherlink.com 1.10,2013-04-22 02:18:00,
2013-04-21 22:33:00,47.0,30.0,30.57,ESE,121,0.0,4.0,52,0.00,,,0.00,weatherlink.com 1.10,2013-04-22 02:33:00,
2013-04-21 22:48:00,46.4,30.0,30.57,SE,128,0.0,0.0,54,0.00,,,0.00,weatherlink.com 1.10,2013-04-22 02:48:00,
2013-04-21 23:03:00,45.5,33.0,30.58,SE,128,0.0,0.0,61,0.00,,,0.00,weatherlink.com 1.10,2013-04-22 03:03:00,
2013-04-21 23:18:00,46.8,32.0,30.58,East,94,0.0,5.0,56,0.00,,,0.00,weatherlink.com 1.10,2013-04-22 03:18:00,
2013-04-21 23:33:00,46.7,34.0,30.58,SE,139,3.0,7.0,62,0.00,,,0.00,weatherlink.com 1.10,2013-04-22 03:33:00,
2013-04-21 23:48:00,46.3,35.0,30.58,East,98,1.0,6.0,64,0.00,,,0.00,weatherlink.com 1.10,2013-04-22 03:48:00,